Time;durP1;ratioP1;P1;durP2;ratioP2;P2;SDS_P1;SDS_P2;PMS_P1;PMS_P2;Temp;Humidity;BMP_temperature;BMP_pressure;BME280_temperature;BME280_humidity;BME280_pressure;Samples;Min_cycle;Max_cycle;Signal;HPM_P1;HPM_P2
2023/02/03 00:00:06;;;;;;;;;;;;;;;;;;5112580;28;19957;-79
2023/02/03 00:02:32;;;;;;;;;;;;;;;;;;5114368;28;19908;-79
2023/02/03 00:04:58;;;;;;;;;;;;;;;;;;5114154;28;19914;-79
2023/02/03 00:07:23;;;;;;;;;;;;;;;;;;5113998;28;19923;-79
2023/02/03 00:09:49;;;;;;;;;;;;;;;;;;5118285;28;19907;-78
2023/02/03 00:12:15;;;;;;;;;;;;;;;;;;5117019;28;19957;-79
2023/02/03 00:14:41;;;;;;;;;;;;;;;;;;5117954;28;19908;-78
2023/02/03 00:17:07;;;;;;;;;;;;;;;;;;5118332;28;19911;-79
2023/02/03 00:19:33;;;;;;;;;;;;;;;;;;5118528;28;19908;-79
2023/02/03 00:21:59;;;;;;;;;;;;;;;;;;5117601;28;20060;-78
2023/02/03 00:24:25;;;;;;;;;;;;;;;;;;5118059;28;19908;-79
2023/02/03 00:26:51;;;;;;;;;;;;;;;;;;5116169;28;19915;-79
2023/02/03 00:29:17;;;;;;;;;;;;;;;;;;5118031;28;19912;-78
2023/02/03 00:31:43;;;;;;;;;;;;;;;;;;5116883;28;19914;-78
2023/02/03 00:34:09;;;;;;;;;;;;;;;;;;5117520;28;19908;-78
2023/02/03 00:36:35;;;;;;;;;;;;;;;;;;5117815;28;19908;-78
2023/02/03 00:39:01;;;;;;;;;;;;;;;;;;5117571;28;19908;-78
2023/02/03 00:41:27;;;;;;;;;;;;;;;;;;5117345;28;19977;-79
2023/02/03 00:43:53;;;;;;;;;;;;;;;;;;5117585;28;20326;-78
2023/02/03 00:46:19;;;;;;;;;;;;;;;;;;5117402;28;20327;-78
2023/02/03 00:48:45;;;;;;;;;;;;;;;;;;5118263;28;19907;-78
2023/02/03 00:51:11;;;;;;;;;;;;;;;;;;5119177;28;19907;-78
2023/02/03 00:53:37;;;;;;;;;;;;;;;;;;5118850;28;19955;-78
2023/02/03 00:56:02;;;;;;;;;;;;;;;;;;5117291;28;19915;-78
2023/02/03 00:58:28;;;;;;;;;;;;;;;;;;5119219;28;19908;-78
2023/02/03 01:00:55;;;;;;;;;;;;;;;;;;5118623;28;19914;-78
2023/02/03 01:03:21;;;;;;;;;;;;;;;;;;5129307;28;19908;-78
2023/02/03 01:05:47;;;;;;;;;;;;;;;;;;5138646;28;19904;-78
2023/02/03 01:08:13;;;;;;;;;;;;;;;;;;5138913;28;19908;-78
2023/02/03 01:10:39;;;;;;;;;;;;;;;;;;5120370;28;20010;-78
2023/02/03 01:13:05;;;;;;;;;;;;;;;;;;5117252;28;20416;-78
2023/02/03 01:15:31;;;;;;;;;;;;;;;;;;5115877;28;19908;-78
2023/02/03 01:17:57;;;;;;;;;;;;;;;;;;5116385;28;20403;-78
2023/02/03 01:20:23;;;;;;;;;;;;;;;;;;5116518;28;19973;-78
2023/02/03 01:22:49;;;;;;;;;;;;;;;;;;5117071;28;19915;-78
2023/02/03 01:25:15;;;;;;;;;;;;;;;;;;5116528;28;19994;-78
2023/02/03 01:27:41;;;;;;;;;;;;;;;;;;5116948;28;19922;-78
2023/02/03 01:30:07;;;;;;;;;;;;;;;;;;5116365;28;19911;-78
2023/02/03 01:32:33;;;;;;;;;;;;;;;;;;5116929;28;19914;-78
2023/02/03 01:34:59;;;;;;;;;;;;;;;;;;5117105;28;19908;-78
2023/02/03 01:37:25;;;;;;;;;;;;;;;;;;5115076;28;19911;-78
2023/02/03 01:39:51;;;;;;;;;;;;;;;;;;5117008;28;19908;-78
2023/02/03 01:42:17;;;;;;;;;;;;;;;;;;5117080;28;19964;-78
2023/02/03 01:44:43;;;;;;;;;;;;;;;;;;5116605;28;19915;-78
2023/02/03 01:47:09;;;;;;;;;;;;;;;;;;5116430;28;19920;-78
2023/02/03 01:49:35;;;;;;;;;;;;;;;;;;5109434;28;19915;-78
2023/02/03 01:52:01;;;;;;;;;;;;;;;;;;5095116;28;19908;-79
2023/02/03 01:54:27;;;;;;;;;;;;;;;;;;5096267;28;19919;-78
2023/02/03 01:56:52;;;;;;;;;;;;;;;;;;5096441;28;19944;-79
2023/02/03 01:59:18;;;;;;;;;;;;;;;;;;5095614;28;19947;-79
2023/02/03 02:01:44;;;;;;;;;;;;;;;;;;5095716;28;19908;-79
2023/02/03 02:04:10;;;;;;;;;;;;;;;;;;5095739;28;19908;-79
2023/02/03 02:06:36;;;;;;;;;;;;;;;;;;5095167;28;19922;-79
2023/02/03 02:09:02;;;;;;;;;;;;;;;;;;5094395;28;19947;-79
2023/02/03 02:11:28;;;;;;;;;;;;;;;;;;5095498;28;19908;-79
2023/02/03 02:13:54;;;;;;;;;;;;;;;;;;5095125;28;19908;-79
2023/02/03 02:16:20;;;;;;;;;;;;;;;;;;5095418;28;19943;-79
2023/02/03 02:18:46;;;;;;;;;;;;;;;;;;5095341;28;19908;-79
2023/02/03 02:21:12;;;;;;;;;;;;;;;;;;5094896;28;19908;-79
2023/02/03 02:23:38;;;;;;;;;;;;;;;;;;5093997;28;19908;-79
2023/02/03 02:26:04;;;;;;;;;;;;;;;;;;5095195;28;19912;-79
2023/02/03 02:28:29;;;;;;;;;;;;;;;;;;5094924;28;19912;-79
2023/02/03 02:30:55;;;;;;;;;;;;;;;;;;5094305;28;19994;-79
2023/02/03 02:33:21;;;;;;;;;;;;;;;;;;5095069;28;19916;-79
2023/02/03 02:35:47;;;;;;;;;;;;;;;;;;5095039;28;19918;-79
2023/02/03 02:38:13;;;;;;;;;;;;;;;;;;5095045;28;20015;-79
2023/02/03 02:40:39;;;;;;;;;;;;;;;;;;5094518;28;19912;-79
2023/02/03 02:43:05;;;;;;;;;;;;;;;;;;5094893;28;19912;-79
2023/02/03 02:45:31;;;;;;;;;;;;;;;;;;5094700;28;19908;-79
2023/02/03 02:47:57;;;;;;;;;;;;;;;;;;5094659;28;19972;-79
2023/02/03 02:50:23;;;;;;;;;;;;;;;;;;5094774;28;19915;-79
2023/02/03 02:52:49;;;;;;;;;;;;;;;;;;5095017;28;19908;-79
2023/02/03 02:55:15;;;;;;;;;;;;;;;;;;5094255;28;20368;-79
2023/02/03 02:57:41;;;;;;;;;;;;;;;;;;5095134;28;19931;-79
2023/02/03 03:00:06;;;;;;;;;;;;;;;;;;5094518;28;20033;-79
2023/02/03 03:02:33;;;;;;;;;;;;;;;;;;5094261;28;19915;-79
2023/02/03 03:04:59;;;;;;;;;;;;;;;;;;5094627;28;20413;-79
2023/02/03 03:07:25;;;;;;;;;;;;;;;;;;5093873;28;19987;-79
2023/02/03 03:09:51;;;;;;;;;;;;;;;;;;5095972;28;19908;-80
2023/02/03 03:12:17;;;;;;;;;;;;;;;;;;5094981;28;19919;-80
2023/02/03 03:14:43;;;;;;;;;;;;;;;;;;5096122;28;19908;-80
2023/02/03 03:17:09;;;;;;;;;;;;;;;;;;5094575;28;19939;-79
2023/02/03 03:19:35;;;;;;;;;;;;;;;;;;5094964;28;19908;-80
2023/02/03 03:22:01;;;;;;;;;;;;;;;;;;5093614;28;19908;-80
2023/02/03 03:24:27;;;;;;;;;;;;;;;;;;5094963;28;19913;-79
2023/02/03 03:26:53;;;;;;;;;;;;;;;;;;5095241;28;20364;-80
2023/02/03 03:29:19;;;;;;;;;;;;;;;;;;5095670;28;19908;-78
2023/02/03 03:31:45;;;;;;;;;;;;;;;;;;5093986;28;19960;-79
2023/02/03 03:34:11;;;;;;;;;;;;;;;;;;5094174;28;19908;-79
2023/02/03 03:36:37;;;;;;;;;;;;;;;;;;5094103;28;19931;-79
2023/02/03 03:39:03;;;;;;;;;;;;;;;;;;5093957;28;19908;-79
2023/02/03 03:41:28;;;;;;;;;;;;;;;;;;5092948;28;19961;-79
2023/02/03 03:43:54;;;;;;;;;;;;;;;;;;5094253;28;19908;-79
2023/02/03 03:46:20;;;;;;;;;;;;;;;;;;5093926;28;19932;-79
2023/02/03 03:48:46;;;;;;;;;;;;;;;;;;5094421;28;19915;-79
2023/02/03 03:51:12;;;;;;;;;;;;;;;;;;5093835;28;19908;-79
2023/02/03 03:53:38;;;;;;;;;;;;;;;;;;5093163;28;19954;-80
2023/02/03 03:56:04;;;;;;;;;;;;;;;;;;5094772;28;19915;-79
2023/02/03 03:58:30;;;;;;;;;;;;;;;;;;5093979;28;19909;-80
2023/02/03 04:00:56;;;;;;;;;;;;;;;;;;5093878;28;20287;-80
2023/02/03 04:03:22;;;;;;;;;;;;;;;;;;5093889;28;20288;-80
2023/02/03 04:05:48;;;;;;;;;;;;;;;;;;5093442;28;20388;-80
2023/02/03 04:08:14;;;;;;;;;;;;;;;;;;5093909;28;20254;-80
2023/02/03 04:10:40;;;;;;;;;;;;;;;;;;5093857;28;20360;-79
2023/02/03 04:13:06;;;;;;;;;;;;;;;;;;5093459;28;20375;-80
2023/02/03 04:15:32;;;;;;;;;;;;;;;;;;5094079;28;19991;-80
2023/02/03 04:18:00;;;;;;;;;;;;;;;;;;5092615;28;20326;-80
2023/02/03 04:20:26;;;;;;;;;;;;;;;;;;5093475;28;19930;-80
2023/02/03 04:22:52;;;;;;;;;;;;;;;;;;5093656;28;19951;-80
2023/02/03 04:25:18;;;;;;;;;;;;;;;;;;5093671;28;19908;-80
2023/02/03 04:27:43;;;;;;;;;;;;;;;;;;5093185;28;20015;-80
2023/02/03 04:30:09;;;;;;;;;;;;;;;;;;5093593;28;20268;-79
2023/02/03 04:32:35;;;;;;;;;;;;;;;;;;5093711;28;20365;-80
2023/02/03 04:35:01;;;;;;;;;;;;;;;;;;5093321;28;19915;-80
2023/02/03 04:37:27;;;;;;;;;;;;;;;;;;5093615;28;19958;-80
2023/02/03 04:39:54;;;;;;;;;;;;;;;;;;5093653;28;19909;-80
2023/02/03 04:42:20;;;;;;;;;;;;;;;;;;5093076;28;19912;-80
2023/02/03 04:44:46;;;;;;;;;;;;;;;;;;5093481;28;19916;-80
2023/02/03 04:47:12;;;;;;;;;;;;;;;;;;5092898;28;19920;-80
2023/02/03 04:49:38;;;;;;;;;;;;;;;;;;5092179;28;19909;-80
2023/02/03 04:52:03;;;;;;;;;;;;;;;;;;5093390;28;19995;-80
2023/02/03 04:54:29;;;;;;;;;;;;;;;;;;5095109;28;19908;-80
2023/02/03 04:56:55;;;;;;;;;;;;;;;;;;5095763;28;19914;-80
2023/02/03 04:59:21;;;;;;;;;;;;;;;;;;5097173;28;19958;-80
2023/02/03 05:01:47;;;;;;;;;;;;;;;;;;5096638;28;19919;-80
2023/02/03 05:04:13;;;;;;;;;;;;;;;;;;5096974;28;19961;-80
2023/02/03 05:06:39;;;;;;;;;;;;;;;;;;5095807;28;19925;-80
2023/02/03 05:09:05;;;;;;;;;;;;;;;;;;5096580;28;19952;-80
2023/02/03 05:11:31;;;;;;;;;;;;;;;;;;5096820;28;19908;-80
2023/02/03 05:13:57;;;;;;;;;;;;;;;;;;5096704;28;19912;-79
2023/02/03 05:16:23;;;;;;;;;;;;;;;;;;5096332;28;20049;-80
2023/02/03 05:18:49;;;;;;;;;;;;;;;;;;5096744;28;19916;-80
2023/02/03 05:21:15;;;;;;;;;;;;;;;;;;5096474;28;19909;-80
2023/02/03 05:23:40;;;;;;;;;;;;;;;;;;5094877;28;19908;-80
2023/02/03 05:26:06;;;;;;;;;;;;;;;;;;5096420;28;19927;-80
2023/02/03 05:28:32;;;;;;;;;;;;;;;;;;5095392;28;19912;-80
2023/02/03 05:30:58;;;;;;;;;;;;;;;;;;5096116;28;19908;-79
2023/02/03 05:33:24;;;;;;;;;;;;;;;;;;5096458;28;19963;-79
2023/02/03 05:35:50;;;;;;;;;;;;;;;;;;5096585;28;19912;-79
2023/02/03 05:38:16;;;;;;;;;;;;;;;;;;5095818;28;19908;-79
2023/02/03 05:43:26;;;;;;;;;;;;;;;;;;5095559;28;19915;-79
2023/02/03 05:45:52;;;;;;;;;;;;;;;;;;5094728;28;20284;-79
2023/02/03 05:48:18;;;;;;;;;;;;;;;;;;5096435;28;19981;-79
2023/02/03 05:50:44;;;;;;;;;;;;;;;;;;5094537;28;20061;-79
2023/02/03 05:53:10;;;;;;;;;;;;;;;;;;5096071;28;20300;-79
2023/02/03 05:55:36;;;;;;;;;;;;;;;;;;5096018;28;20364;-79
2023/02/03 05:58:02;;;;;;;;;;;;;;;;;;5094357;28;20348;-79
2023/02/03 06:00:28;;;;;;;;;;;;;;;;;;5094461;28;19914;-79
2023/02/03 06:02:54;;;;;;;;;;;;;;;;;;5094216;28;19996;-79
2023/02/03 06:05:20;;;;;;;;;;;;;;;;;;5095256;28;19912;-79
2023/02/03 06:07:46;;;;;;;;;;;;;;;;;;5095398;28;20386;-79
2023/02/03 06:10:12;;;;;;;;;;;;;;;;;;5094318;28;20307;-80
2023/02/03 06:12:38;;;;;;;;;;;;;;;;;;5094357;28;19908;-75
2023/02/03 06:15:04;;;;;;;;;;;;;;;;;;5093981;28;19940;-74
2023/02/03 06:17:30;;;;;;;;;;;;;;;;;;5092941;28;19935;-72
2023/02/03 06:19:56;;;;;;;;;;;;;;;;;;5093966;28;20356;-73
2023/02/03 06:22:21;;;;;;;;;;;;;;;;;;5093870;28;20421;-79
2023/02/03 06:24:47;;;;;;;;;;;;;;;;;;5093916;28;20388;-78
2023/02/03 06:27:13;;;;;;;;;;;;;;;;;;5091292;28;20377;-80
2023/02/03 06:29:39;;;;;;;;;;;;;;;;;;5095096;28;19960;-79
2023/02/03 06:32:05;;;;;;;;;;;;;;;;;;5113385;28;19914;-80
2023/02/03 06:34:31;;;;;;;;;;;;;;;;;;5113391;28;19924;-76
2023/02/03 06:36:57;;;;;;;;;;;;;;;;;;5116500;28;20284;-76
2023/02/03 06:39:23;;;;;;;;;;;;;;;;;;5095129;28;19923;-77
2023/02/03 06:41:52;;;;;;;;;;;;;;;;;;5096332;28;19937;-78
2023/02/03 06:44:18;;;;;;;;;;;;;;;;;;5098382;28;20401;-83
2023/02/03 06:46:44;;;;;;;;;;;;;;;;;;5091180;28;20007;-79
2023/02/03 06:49:10;;;;;;;;;;;;;;;;;;5090360;28;19912;-81
2023/02/03 06:51:36;;;;;;;;;;;;;;;;;;5089622;28;20011;-81
2023/02/03 06:54:05;;;;;;;;;;;;;;;;;;5089779;28;20391;-79
2023/02/03 06:56:31;;;;;;;;;;;;;;;;;;5095816;28;19912;-80
2023/02/03 06:58:57;;;;;;;;;;;;;;;;;;5090074;28;19918;-78
2023/02/03 07:01:24;;;;;;;;;;;;;;;;;;5092939;28;19912;-79
2023/02/03 07:03:50;;;;;;;;;;;;;;;;;;5084799;28;19908;-75
2023/02/03 07:06:16;;;;;;;;;;;;;;;;;;5118116;27;20426;-78
2023/02/03 07:08:42;;;;;;;;;;;;;;;;;;5090148;28;20287;-76
2023/02/03 07:11:08;;;;;;;;;;;;;;;;;;5081932;28;20427;-81
2023/02/03 07:13:35;;;;;;;;;;;;;;;;;;5091725;28;20437;-83
2023/02/03 07:16:02;;;;;;;;;;;;;;;;;;5089684;28;19947;-79
2023/02/03 07:18:30;;;;;;;;;;;;;;;;;;5090498;28;19912;-75
2023/02/03 07:20:56;;;;;;;;;;;;;;;;;;5087552;28;20043;-73
2023/02/03 07:23:22;;;;;;;;;;;;;;;;;;5089045;28;19942;-75
2023/02/03 07:25:48;;;;;;;;;;;;;;;;;;5084001;28;20611;-69
2023/02/03 07:28:14;;;;;;;;;;;;;;;;;;5086292;28;20029;-69
2023/02/03 07:30:40;;;;;;;;;;;;;;;;;;5092922;28;19935;-72
2023/02/03 07:33:06;;;;;;;;;;;;;;;;;;5087087;28;20004;-72
2023/02/03 07:35:32;;;;;;;;;;;;;;;;;;5087807;28;19912;-73
2023/02/03 07:37:58;;;;;;;;;;;;;;;;;;5087730;28;19916;-78
2023/02/03 07:40:24;;;;;;;;;;;;;;;;;;5088888;28;19937;-73
2023/02/03 07:42:50;;;;;;;;;;;;;;;;;;5088735;28;19955;-73
2023/02/03 07:45:16;;;;;;;;;;;;;;;;;;5089523;28;20376;-72
2023/02/03 07:47:42;;;;;;;;;;;;;;;;;;5090807;28;19972;-72
2023/02/03 07:50:08;;;;;;;;;;;;;;;;;;5091014;28;19912;-72
2023/02/03 07:52:34;;;;;;;;;;;;;;;;;;5091218;28;19908;-73
2023/02/03 07:55:00;;;;;;;;;;;;;;;;;;5088511;28;20397;-73
2023/02/03 07:57:26;;;;;;;;;;;;;;;;;;5097082;28;20403;-73
2023/02/03 07:59:52;;;;;;;;;;;;;;;;;;5083854;28;20360;-72
2023/02/03 08:02:18;;;;;;;;;;;;;;;;;;5090167;28;20383;-74
2023/02/03 08:04:44;;;;;;;;;;;;;;;;;;5086003;28;19970;-74
2023/02/03 08:07:10;;;;;;;;;;;;;;;;;;5087194;28;19943;-78
2023/02/03 08:09:35;;;;;;;;;;;;;;;;;;5085715;28;19912;-76
2023/02/03 08:12:01;;;;;;;;;;;;;;;;;;5087221;28;20269;-76
2023/02/03 08:14:28;;;;;;;;;;;;;;;;;;5096377;28;20234;-74
2023/02/03 08:16:54;;;;;;;;;;;;;;;;;;5089069;28;19915;-78
2023/02/03 08:19:20;;;;;;;;;;;;;;;;;;5089271;28;20527;-78
2023/02/03 08:21:45;;;;;;;;;;;;;;;;;;5088621;28;20388;-75
2023/02/03 08:24:11;;;;;;;;;;;;;;;;;;5088089;28;19913;-76
2023/02/03 08:26:37;;;;;;;;;;;;;;;;;;5085221;28;19943;-76
2023/02/03 08:29:03;;;;;;;;;;;;;;;;;;5090743;28;19908;-79
2023/02/03 08:31:29;;;;;;;;;;;;;;;;;;5094385;28;19997;-76
2023/02/03 08:33:56;;;;;;;;;;;;;;;;;;5094624;28;19916;-78
2023/02/03 08:36:22;;;;;;;;;;;;;;;;;;5095083;28;19916;-78
2023/02/03 08:38:47;;;;;;;;;;;;;;;;;;5095657;28;20019;-83
2023/02/03 08:41:13;;;;;;;;;;;;;;;;;;5102719;28;19911;-79
2023/02/03 08:43:39;;;;;;;;;;;;;;;;;;5103203;28;19912;-72
2023/02/03 08:46:05;;;;;;;;;;;;;;;;;;5091322;28;19927;-75
2023/02/03 08:48:31;;;;;;;;;;;;;;;;;;5093557;28;19912;-71
2023/02/03 08:50:57;;;;;;;;;;;;;;;;;;5093699;28;20007;-70
2023/02/03 08:53:23;;;;;;;;;;;;;;;;;;5095950;28;19908;-72
2023/02/03 08:55:49;;;;;;;;;;;;;;;;;;5095080;28;19970;-73
2023/02/03 08:58:15;;;;;;;;;;;;;;;;;;5087381;28;19957;-72
2023/02/03 09:00:41;;;;;;;;;;;;;;;;;;5087231;28;19916;-71
2023/02/03 09:03:07;;;;;;;;;;;;;;;;;;5090288;28;19923;-76
2023/02/03 09:05:33;;;;;;;;;;;;;;;;;;5089327;28;19917;-74
2023/02/03 09:07:59;;;;;;;;;;;;;;;;;;5087646;28;19916;-71
2023/02/03 09:10:25;;;;;;;;;;;;;;;;;;5089561;28;20003;-72
2023/02/03 09:12:51;;;;;;;;;;;;;;;;;;5096346;28;19916;-72
2023/02/03 09:15:17;;;;;;;;;;;;;;;;;;5093196;28;20424;-70
2023/02/03 09:17:43;;;;;;;;;;;;;;;;;;5087482;28;20050;-70
2023/02/03 09:20:12;;;;;;;;;;;;;;;;;;5091886;28;19915;-69
2023/02/03 09:22:37;;;;;;;;;;;;;;;;;;5093379;28;19961;-69
2023/02/03 09:25:03;;;;;;;;;;;;;;;;;;5092304;28;20011;-70
2023/02/03 09:27:29;;;;;;;;;;;;;;;;;;5094401;28;19916;-74
2023/02/03 09:29:57;;;;;;;;;;;;;;;;;;5093487;28;19916;-73
2023/02/03 09:32:24;;;;;;;;;;;;;;;;;;5095188;28;20360;-73
2023/02/03 09:34:50;;;;;;;;;;;;;;;;;;5094776;28;19943;-73
2023/02/03 09:37:15;;;;;;;;;;;;;;;;;;5093740;28;19987;-73
2023/02/03 09:39:41;;;;;;;;;;;;;;;;;;5093638;28;20385;-73
2023/02/03 09:42:07;;;;;;;;;;;;;;;;;;5093594;28;20431;-72
2023/02/03 09:44:33;;;;;;;;;;;;;;;;;;5091895;28;19924;-71
2023/02/03 09:46:59;;;;;;;;;;;;;;;;;;5082735;28;19946;-70
2023/02/03 09:49:25;;;;;;;;;;;;;;;;;;5084172;28;19912;-72
2023/02/03 09:51:51;;;;;;;;;;;;;;;;;;5087719;28;19916;-72
2023/02/03 09:54:17;;;;;;;;;;;;;;;;;;5090326;28;20019;-71
2023/02/03 09:56:51;;;;;;;;;;;;;;;;;;5087550;28;19919;-72
2023/02/03 09:59:17;;;;;;;;;;;;;;;;;;5096084;28;19921;-71
2023/02/03 10:01:43;;;;;;;;;;;;;;;;;;5071364;28;19915;-72
2023/02/03 10:04:08;;;;;;;;;;;;;;;;;;5091402;28;19919;-71
2023/02/03 10:06:34;;;;;;;;;;;;;;;;;;5087399;28;19931;-70
2023/02/03 10:09:01;;;;;;;;;;;;;;;;;;5093259;28;19916;-72
2023/02/03 10:11:27;;;;;;;;;;;;;;;;;;5093440;28;19954;-72
2023/02/03 10:13:53;;;;;;;;;;;;;;;;;;5093738;28;19956;-74
2023/02/03 10:16:18;;;;;;;;;;;;;;;;;;5092867;28;19915;-71
2023/02/03 10:18:44;;;;;;;;;;;;;;;;;;5091932;28;19919;-73
2023/02/03 10:21:10;;;;;;;;;;;;;;;;;;5085954;28;19958;-70
2023/02/03 10:23:36;;;;;;;;;;;;;;;;;;5092842;28;19916;-71
2023/02/03 10:26:02;;;;;;;;;;;;;;;;;;5085970;28;19915;-70
2023/02/03 10:28:28;;;;;;;;;;;;;;;;;;5089983;28;19923;-69
2023/02/03 10:30:55;;;;;;;;;;;;;;;;;;5080807;28;19949;-72
2023/02/03 10:33:21;;;;;;;;;;;;;;;;;;5090374;28;19919;-72
2023/02/03 10:35:47;;;;;;;;;;;;;;;;;;5088239;28;19920;-72
2023/02/03 10:38:13;;;;;;;;;;;;;;;;;;5085043;28;19916;-69
2023/02/03 10:40:39;;;;;;;;;;;;;;;;;;5085168;28;19935;-71
2023/02/03 10:45:49;;;;;;;;;;;;;;;;;;5091309;28;19930;-72
2023/02/03 10:48:15;;;;;;;;;;;;;;;;;;5091997;28;20010;-69
2023/02/03 10:50:41;;;;;;;;;;;;;;;;;;5092663;28;19912;-71
2023/02/03 10:53:07;;;;;;;;;;;;;;;;;;5091220;28;20315;-72
2023/02/03 10:55:33;;;;;;;;;;;;;;;;;;5089968;28;20295;-72
2023/02/03 10:57:59;;;;;;;;;;;;;;;;;;5090647;28;20340;-71
2023/02/03 11:00:25;;;;;;;;;;;;;;;;;;5091148;28;19991;-72
2023/02/03 11:02:51;;;;;;;;;;;;;;;;;;5091675;28;19908;-74
2023/02/03 11:05:17;;;;;;;;;;;;;;;;;;5087971;28;19946;-74
2023/02/03 11:07:43;;;;;;;;;;;;;;;;;;5087942;28;19924;-70
2023/02/03 11:10:09;;;;;;;;;;;;;;;;;;5091628;28;20011;-71
2023/02/03 11:12:35;;;;;;;;;;;;;;;;;;5090090;28;19912;-70
2023/02/03 11:15:00;;;;;;;;;;;;;;;;;;5090790;28;19934;-70
2023/02/03 11:17:28;;;;;;;;;;;;;;;;;;5090423;28;19964;-69
2023/02/03 11:19:54;;;;;;;;;;;;;;;;;;5092524;28;19913;-69
2023/02/03 11:22:20;;;;;;;;;;;;;;;;;;5092625;28;19912;-69
2023/02/03 11:24:46;;;;;;;;;;;;;;;;;;5092871;28;19961;-68
2023/02/03 11:27:12;;;;;;;;;;;;;;;;;;5086346;28;19928;-68
2023/02/03 11:29:38;;;;;;;;;;;;;;;;;;5079840;28;19913;-69
2023/02/03 11:32:04;;;;;;;;;;;;;;;;;;5071877;28;19908;-68
2023/02/03 11:34:30;;;;;;;;;;;;;;;;;;5090726;28;19912;-69
2023/02/03 11:36:56;;;;;;;;;;;;;;;;;;5093270;28;19951;-68
2023/02/03 11:39:22;;;;;;;;;;;;;;;;;;5098218;28;19916;-69
2023/02/03 11:41:48;;;;;;;;;;;;;;;;;;5099095;28;19912;-70
2023/02/03 11:44:14;;;;;;;;;;;;;;;;;;5088001;28;19919;-69
2023/02/03 11:46:40;;;;;;;;;;;;;;;;;;5089340;28;19998;-69
2023/02/03 11:49:06;;;;;;;;;;;;;;;;;;5087060;28;20260;-69
2023/02/03 11:51:32;;;;;;;;;;;;;;;;;;5085088;28;19955;-68
2023/02/03 11:53:58;;;;;;;;;;;;;;;;;;5088975;28;19966;-75
2023/02/03 11:56:24;;;;;;;;;;;;;;;;;;5087856;28;19912;-80
2023/02/03 11:58:50;;;;;;;;;;;;;;;;;;5089593;28;20407;-74
2023/02/03 12:01:16;;;;;;;;;;;;;;;;;;5084443;28;19939;-73
2023/02/03 12:03:42;;;;;;;;;;;;;;;;;;5091163;28;19907;-70
2023/02/03 12:06:07;;;;;;;;;;;;;;;;;;5089708;28;19963;-74
2023/02/03 12:08:33;;;;;;;;;;;;;;;;;;5085483;28;19921;-70
2023/02/03 12:10:59;;;;;;;;;;;;;;;;;;5093604;28;19908;-72
2023/02/03 12:13:25;;;;;;;;;;;;;;;;;;5091996;28;19908;-75
2023/02/03 12:15:51;;;;;;;;;;;;;;;;;;5094189;28;20348;-75
2023/02/03 12:18:17;;;;;;;;;;;;;;;;;;5094325;28;20654;-72
2023/02/03 12:20:43;;;;;;;;;;;;;;;;;;5095658;28;20317;-71
2023/02/03 12:24:26;;;;;;;;;;;;;;;;;;5104785;27;20253;-72
2023/02/03 12:26:52;;;;;;;;;;;;;;;;;;5088744;28;19919;-74
2023/02/03 12:29:18;;;;;;;;;;;;;;;;;;5089791;28;19908;-76
2023/02/03 12:31:44;;;;;;;;;;;;;;;;;;5089787;28;19924;-76
2023/02/03 12:38:14;;;;;;;;;;;;;;;;;;5094423;28;20311;-69
2023/02/03 12:40:40;;;;;;;;;;;;;;;;;;5086284;28;20007;-72
2023/02/03 12:45:11;;;;;;;;;;;;;;;;;;5090610;27;19916;-70
2023/02/03 12:47:38;;;;;;;;;;;;;;;;;;5064750;28;19917;-71
2023/02/03 12:50:04;;;;;;;;;;;;;;;;;;5068039;28;19916;-70
2023/02/03 12:52:30;;;;;;;;;;;;;;;;;;5070032;28;19922;-71
2023/02/03 12:54:56;;;;;;;;;;;;;;;;;;5065144;28;19936;-69
2023/02/03 12:57:44;;;;;;;;;;;;;;;;;;5117784;27;19916;-74
2023/02/03 13:02:33;;;;;;;;;;;;;;;;;;5114133;27;19935;-71
2023/02/03 13:05:29;;;;;;;;;;;;;;;;;;5109021;27;19924;-72
2023/02/03 13:09:35;;;;;;;;;;;;;;;;;;5134666;27;19922;-70
2023/02/03 13:12:02;;;;;;;;;;;;;;;;;;5123712;27;19915;-69
2023/02/03 13:16:49;;;;;;;;;;;;;;;;;;5131842;27;19933;-70
2023/02/03 13:19:15;;;;;;;;;;;;;;;;;;5129680;28;20383;-72
2023/02/03 13:21:41;;;;;;;;;;;;;;;;;;5128350;27;19958;-72
2023/02/03 13:24:49;;;;;;;;;;;;;;;;;;5137749;27;19918;-70
2023/02/03 13:27:15;;;;;;;;;;;;;;;;;;5106444;28;19920;-70
2023/02/03 13:29:41;;;;;;;;;;;;;;;;;;5122444;27;19907;-69
2023/02/03 13:32:07;;;;;;;;;;;;;;;;;;5118821;28;19916;-70
2023/02/03 13:34:33;;;;;;;;;;;;;;;;;;5126769;28;19931;-70
2023/02/03 13:36:59;;;;;;;;;;;;;;;;;;5121410;28;19925;-79
2023/02/03 13:39:25;;;;;;;;;;;;;;;;;;5099320;28;20378;-79
2023/02/03 13:41:51;;;;;;;;;;;;;;;;;;5119810;28;19915;-81
2023/02/03 13:46:04;;;;;;;;;;;;;;;;;;5089382;27;20363;-70
2023/02/03 13:48:29;;;;;;;;;;;;;;;;;;5088785;28;19913;-71
2023/02/03 13:50:55;;;;;;;;;;;;;;;;;;5084433;28;19920;-71
2023/02/03 13:53:22;;;;;;;;;;;;;;;;;;5088969;28;20011;-72
2023/02/03 13:56:09;;;;;;;;;;;;;;;;;;5087168;27;20311;-71
2023/02/03 13:58:35;;;;;;;;;;;;;;;;;;5079883;28;20002;-73
2023/02/03 14:01:01;;;;;;;;;;;;;;;;;;5082601;28;19919;-72
2023/02/03 14:05:21;;;;;;;;;;;;;;;;;;5101777;27;19942;-75
2023/02/03 14:07:47;;;;;;;;;;;;;;;;;;5095332;28;20377;-75
2023/02/03 14:10:13;;;;;;;;;;;;;;;;;;5068933;28;20280;-75
2023/02/03 14:13:18;;;;;;;;;;;;;;;;;;5083173;27;19920;-75
2023/02/03 14:15:47;;;;;;;;;;;;;;;;;;5070390;28;20257;-78
2023/02/03 14:18:12;;;;;;;;;;;;;;;;;;5068499;28;19951;-75
2023/02/03 14:23:38;;;;;;;;;;;;;;;;;;5130282;27;20385;-75
2023/02/03 14:27:14;;;;;;;;;;;;;;;;;;5110964;27;20394;-73
2023/02/03 14:29:40;;;;;;;;;;;;;;;;;;5110208;27;19916;-73
2023/02/03 14:35:06;;;;;;;;;;;;;;;;;;5111259;27;20026;-76
2023/02/03 14:38:47;;;;;;;;;;;;;;;;;;5121652;27;19935;-76
2023/02/03 14:41:13;;;;;;;;;;;;;;;;;;5107491;28;19921;-73
2023/02/03 14:49:09;;;;;;;;;;;;;;;;;;5110029;27;19920;-74
2023/02/03 14:51:35;;;;;;;;;;;;;;;;;;5098780;28;19965;-74
2023/02/03 14:54:01;;;;;;;;;;;;;;;;;;5105489;28;19934;-73
2023/02/03 14:56:27;;;;;;;;;;;;;;;;;;5087935;28;19908;-73
2023/02/03 14:58:53;;;;;;;;;;;;;;;;;;5090537;28;19991;-74
2023/02/03 15:03:46;;;;;;;;;;;;;;;;;;5089777;28;19922;-77
2023/02/03 15:11:47;;;;;;;;;;;;;;;;;;5109834;27;19992;-75
2023/02/03 15:14:14;;;;;;;;;;;;;;;;;;5108806;28;19934;-75
2023/02/03 15:21:00;;;;;;;;;;;;;;;;;;5111362;27;19916;-74
2023/02/03 15:23:26;;;;;;;;;;;;;;;;;;5100245;28;20003;-74
2023/02/03 15:25:52;;;;;;;;;;;;;;;;;;5097900;28;19908;-76
2023/02/03 15:28:18;;;;;;;;;;;;;;;;;;5098972;28;19915;-74
2023/02/03 15:30:44;;;;;;;;;;;;;;;;;;5093554;28;20365;-74
2023/02/03 15:35:12;;;;;;;;;;;;;;;;;;5109209;27;20391;-75
2023/02/03 15:37:38;;;;;;;;;;;;;;;;;;5110239;28;19912;-76
2023/02/03 15:40:04;;;;;;;;;;;;;;;;;;5103389;28;20357;-74
2023/02/03 15:42:30;;;;;;;;;;;;;;;;;;5109766;28;20380;-74
2023/02/03 15:44:56;;;;;;;;;;;;;;;;;;5111120;28;20395;-74
2023/02/03 15:47:22;;;;;;;;;;;;;;;;;;5111055;28;19925;-74
2023/02/03 15:49:48;;;;;;;;;;;;;;;;;;5110584;28;19908;-74
2023/02/03 15:52:14;;;;;;;;;;;;;;;;;;5110809;28;19911;-75
2023/02/03 15:54:44;;;;;;;;;;;;;;;;;;5110440;28;19969;-74
2023/02/03 15:57:10;;;;;;;;;;;;;;;;;;5105883;28;19920;-74
2023/02/03 15:59:36;;;;;;;;;;;;;;;;;;5090463;28;19908;-74
2023/02/03 16:02:02;;;;;;;;;;;;;;;;;;5090368;28;20005;-74
2023/02/03 16:04:28;;;;;;;;;;;;;;;;;;5088935;28;19954;-75
2023/02/03 16:06:54;;;;;;;;;;;;;;;;;;5108634;27;19908;-75
2023/02/03 16:09:20;;;;;;;;;;;;;;;;;;5106246;28;19912;-72
2023/02/03 16:11:46;;;;;;;;;;;;;;;;;;5103410;28;19912;-76
2023/02/03 16:14:12;;;;;;;;;;;;;;;;;;5088317;28;19969;-76
2023/02/03 16:16:38;;;;;;;;;;;;;;;;;;5096789;28;19916;-75
2023/02/03 16:19:04;;;;;;;;;;;;;;;;;;5107636;28;20007;-75
2023/02/03 16:21:30;;;;;;;;;;;;;;;;;;5114043;28;19959;-75
2023/02/03 16:23:56;;;;;;;;;;;;;;;;;;5109436;28;19939;-73
2023/02/03 16:26:22;;;;;;;;;;;;;;;;;;5110081;28;19916;-72
2023/02/03 16:50:57;;;;;;;;;;;;;;;;;;5076081;28;19958;-74
2023/02/03 16:53:23;;;;;;;;;;;;;;;;;;5054259;28;19916;-74
2023/02/03 16:55:49;;;;;;;;;;;;;;;;;;5072080;28;19912;-73
2023/02/03 16:58:15;;;;;;;;;;;;;;;;;;5075847;28;20383;-73
2023/02/03 17:00:41;;;;;;;;;;;;;;;;;;5067478;28;19955;-73
2023/02/03 17:03:07;;;;;;;;;;;;;;;;;;5055469;28;19909;-73
2023/02/03 17:05:33;;;;;;;;;;;;;;;;;;5055589;28;19916;-73
2023/02/03 17:07:59;;;;;;;;;;;;;;;;;;5038334;28;19916;-73
2023/02/03 17:10:25;;;;;;;;;;;;;;;;;;5058423;28;19978;-74
2023/02/03 17:12:51;;;;;;;;;;;;;;;;;;5066444;28;20031;-74
2023/02/03 17:15:17;;;;;;;;;;;;;;;;;;5056971;28;19913;-74
2023/02/03 17:17:43;;;;;;;;;;;;;;;;;;5064801;28;19934;-74
2023/02/03 17:20:09;;;;;;;;;;;;;;;;;;5069263;28;20388;-73
2023/02/03 17:22:35;;;;;;;;;;;;;;;;;;5059035;28;19913;-73
2023/02/03 17:25:01;;;;;;;;;;;;;;;;;;5043690;28;20392;-73
2023/02/03 17:27:27;;;;;;;;;;;;;;;;;;5062264;28;19935;-73
2023/02/03 17:29:54;;;;;;;;;;;;;;;;;;5066905;28;19908;-73
2023/02/03 17:32:20;;;;;;;;;;;;;;;;;;5036562;28;19913;-74
2023/02/03 17:34:46;;;;;;;;;;;;;;;;;;5068810;28;19974;-73
2023/02/03 17:37:11;;;;;;;;;;;;;;;;;;5073454;28;19908;-74
2023/02/03 17:39:37;;;;;;;;;;;;;;;;;;5072741;28;19908;-73
2023/02/03 17:42:03;;;;;;;;;;;;;;;;;;5073400;28;20133;-73
2023/02/03 17:44:29;;;;;;;;;;;;;;;;;;5073609;28;19978;-73
2023/02/03 17:46:55;;;;;;;;;;;;;;;;;;5073368;28;19961;-73
2023/02/03 17:49:21;;;;;;;;;;;;;;;;;;5074256;28;20379;-74
2023/02/03 17:51:47;;;;;;;;;;;;;;;;;;5091659;28;19931;-73